Time;durP1;ratioP1;P1;durP2;ratioP2;P2;SDS_P1;SDS_P2;PMS_P1;PMS_P2;Temp;Humidity;BMP_temperature;BMP_pressure;BME280_temperature;BME280_humidity;BME280_pressure;Samples;Min_cycle;Max_cycle;Signal;HPM_P1;HPM_P2
2022/01/06 00:01:55;;;;;;;5.23;4.00;;;5.30;99.90;;;;;;5014122;28;20414;-62
2022/01/06 00:04:20;;;;;;;9.60;5.73;;;5.50;99.90;;;;;;5013636;28;20194;-62
2022/01/06 00:06:46;;;;;;;10.00;3.80;;;5.40;99.90;;;;;;5013554;28;20198;-62
2022/01/06 00:09:15;;;;;;;5.83;3.57;;;5.60;99.90;;;;;;5013971;28;20177;-62
2022/01/06 00:11:42;;;;;;;5.07;3.20;;;5.50;99.90;;;;;;5014138;28;20911;-62
2022/01/06 00:17:02;;;;;;;6.00;4.33;;;5.60;99.90;;;;;;5014205;28;20441;-62
2022/01/06 00:25:10;;;;;;;7.63;4.40;;;5.40;99.90;;;;;;5013611;28;20434;-62
2022/01/06 00:27:36;;;;;;;7.70;4.30;;;5.60;99.90;;;;;;4996519;28;20403;-62
2022/01/06 00:30:01;;;;;;;9.83;4.87;;;5.50;99.90;;;;;;5014181;28;20191;-62
2022/01/06 00:32:27;;;;;;;12.33;5.73;;;5.50;99.90;;;;;;5014797;28;20214;-62
2022/01/06 00:34:53;;;;;;;9.40;4.90;;;5.60;99.90;;;;;;5017430;28;20191;-62
2022/01/06 00:37:18;;;;;;;9.47;4.50;;;5.80;99.90;;;;;;5016961;28;20628;-62
2022/01/06 00:39:44;;;;;;;7.67;4.43;;;5.80;99.90;;;;;;4999828;28;20168;-62
2022/01/06 00:42:10;;;;;;;7.37;4.33;;;5.90;99.90;;;;;;5017362;28;20179;-62
2022/01/06 00:44:35;;;;;;;8.90;3.90;;;5.80;99.90;;;;;;5017626;28;20184;-62
2022/01/06 00:47:01;;;;;;;8.80;3.20;;;5.80;99.90;;;;;;5017937;28;20275;-62
2022/01/06 00:49:27;;;;;;;4.90;3.63;;;5.70;99.90;;;;;;5018071;28;20180;-62
2022/01/06 00:51:52;;;;;;;7.50;3.90;;;5.70;99.90;;;;;;5018123;28;20176;-63
2022/01/06 00:54:18;;;;;;;13.77;4.23;;;5.80;99.90;;;;;;5017742;28;20211;-62
2022/01/06 00:56:43;;;;;;;8.37;4.57;;;5.90;99.90;;;;;;5001208;28;20250;-62
2022/01/06 00:59:09;;;;;;;8.80;4.10;;;5.80;99.90;;;;;;5019031;28;20206;-62
2022/01/06 01:01:35;;;;;;;5.57;3.90;;;5.40;99.90;;;;;;5019126;28;20176;-62
2022/01/06 01:04:01;;;;;;;6.73;3.60;;;5.50;99.90;;;;;;5017596;28;20188;-62
2022/01/06 01:06:27;;;;;;;9.47;3.77;;;5.50;99.90;;;;;;5016449;28;20832;-62
2022/01/06 01:08:52;;;;;;;6.07;4.30;;;5.40;99.90;;;;;;5017667;28;20212;-62
2022/01/06 01:11:18;;;;;;;7.97;3.73;;;5.50;99.90;;;;;;5017254;28;20200;-62
2022/01/06 01:13:55;;;;;;;5.33;3.63;;;5.20;99.90;;;;;;5014611;28;20203;-62
2022/01/06 01:16:29;;;;;;;5.33;3.47;;;5.20;99.90;;;;;;5017217;28;20509;-62
2022/01/06 01:18:56;;;;;;;7.77;4.40;;;5.10;99.90;;;;;;5016758;28;20500;-62
2022/01/06 01:21:26;;;;;;;6.80;4.53;;;5.30;99.90;;;;;;5016247;28;20469;-62
2022/01/06 01:23:54;;;;;;;8.33;4.13;;;5.40;99.90;;;;;;5017067;28;20782;-62
2022/01/06 01:26:20;;;;;;;7.60;3.63;;;5.20;99.90;;;;;;5016898;28;20411;-62
2022/01/06 01:28:46;;;;;;;9.50;4.63;;;5.10;99.90;;;;;;5016666;28;20407;-62
2022/01/06 01:33:43;;;;;;;6.17;4.07;;;5.20;99.90;;;;;;5016947;28;20931;-62
2022/01/06 01:36:10;;;;;;;7.67;4.07;;;5.30;99.90;;;;;;5015653;28;20498;-62
2022/01/06 01:38:37;;;;;;;9.60;3.70;;;5.60;99.90;;;;;;5016187;28;20410;-62
2022/01/06 01:41:03;;;;;;;11.03;3.73;;;5.40;99.90;;;;;;5012742;28;20415;-62
2022/01/06 01:43:29;;;;;;;6.27;3.83;;;5.40;99.90;;;;;;5015460;28;20831;-62
2022/01/06 01:45:57;;;;;;;4.93;3.40;;;5.40;99.90;;;;;;5014679;28;20439;-62
2022/01/06 01:48:30;;;;;;;7.57;3.90;;;5.40;99.90;;;;;;5015609;28;20407;-62
2022/01/06 01:50:56;;;;;;;7.47;4.40;;;5.20;99.90;;;;;;5015446;28;20959;-62
2022/01/06 01:53:22;;;;;;;7.20;3.27;;;5.40;99.90;;;;;;5015947;28;20530;-62
2022/01/06 01:55:47;;;;;;;6.03;3.70;;;5.30;99.90;;;;;;5015538;28;20203;-62
2022/01/06 01:58:13;;;;;;;4.87;3.30;;;5.30;99.90;;;;;;5015544;28;20172;-62
2022/01/06 02:00:39;;;;;;;9.90;4.80;;;5.40;99.90;;;;;;5015720;28;20165;-62
2022/01/06 02:03:06;;;;;;;8.57;3.80;;;5.50;99.90;;;;;;5015967;28;20175;-62
2022/01/06 02:05:32;;;;;;;10.63;3.77;;;5.70;99.90;;;;;;5015100;28;20439;-62
2022/01/06 02:07:58;;;;;;;9.63;4.37;;;5.70;99.90;;;;;;5015582;28;20447;-62
2022/01/06 02:10:25;;;;;;;3.77;3.43;;;5.50;99.90;;;;;;5015428;28;20411;-62
2022/01/06 02:12:53;;;;;;;10.13;4.40;;;5.30;99.90;;;;;;5014855;28;20529;-62
2022/01/06 02:15:19;;;;;;;5.87;4.07;;;5.20;99.90;;;;;;5015108;28;20438;-62
2022/01/06 02:17:46;;;;;;;7.40;4.07;;;5.40;99.90;;;;;;5015973;28;20407;-62
2022/01/06 02:20:14;;;;;;;10.03;4.93;;;5.50;99.90;;;;;;5015338;28;20169;-62
2022/01/06 02:22:40;;;;;;;8.13;3.33;;;5.40;99.90;;;;;;5015733;28;20847;-59
2022/01/06 02:25:13;;;;;;;8.53;3.90;;;5.40;99.90;;;;;;5015176;28;20434;-62
2022/01/06 02:27:39;;;;;;;6.20;4.07;;;5.40;99.90;;;;;;5015564;28;20421;-62
2022/01/06 02:30:06;;;;;;;8.20;3.97;;;5.50;99.90;;;;;;5015385;28;20899;-62
2022/01/06 02:32:32;;;;;;;6.67;3.73;;;5.50;99.90;;;;;;5015600;28;20925;-62
2022/01/06 02:35:02;;;;;;;5.70;3.50;;;5.60;99.90;;;;;;5015203;28;20473;-61
2022/01/06 02:37:27;;;;;;;8.37;4.50;;;5.40;99.90;;;;;;5014826;28;20164;-62
2022/01/06 02:39:53;;;;;;;4.90;3.30;;;5.50;99.90;;;;;;5014959;28;20770;-61
2022/01/06 02:42:18;;;;;;;6.00;3.47;;;5.60;99.90;;;;;;5014995;28;20176;-62
2022/01/06 02:44:44;;;;;;;12.07;3.37;;;5.30;99.90;;;;;;5015533;28;20196;-62
2022/01/06 02:47:10;;;;;;;4.97;3.30;;;5.40;99.90;;;;;;5014789;28;20227;-62
2022/01/06 02:49:35;;;;;;;5.20;3.33;;;5.30;99.90;;;;;;5015165;28;20226;-61
2022/01/06 02:52:01;;;;;;;6.00;3.47;;;5.40;99.90;;;;;;5014783;28;20681;-62
2022/01/06 02:54:27;;;;;;;6.20;3.70;;;5.60;99.90;;;;;;5027588;23;20196;-61
2022/01/06 02:56:53;;;;;;;5.00;3.23;;;5.60;99.90;;;;;;4993956;28;20440;-60
2022/01/06 02:59:19;;;;;;;4.90;3.00;;;5.50;99.90;;;;;;4994316;28;20435;-58
2022/01/06 03:01:45;;;;;;;6.00;4.00;;;5.50;99.90;;;;;;4994236;28;20676;-57
2022/01/06 03:04:12;;;;;;;7.83;4.00;;;5.60;99.90;;;;;;4994365;28;20435;-60
2022/01/06 03:06:41;;;;;;;5.70;3.90;;;5.50;99.90;;;;;;4994165;28;20256;-59
2022/01/06 03:09:08;;;;;;;4.10;3.70;;;5.60;99.90;;;;;;4994082;28;20461;-58
2022/01/06 03:11:39;;;;;;;5.80;3.50;;;5.70;99.90;;;;;;4993937;28;20420;-60
2022/01/06 03:14:05;;;;;;;6.17;3.40;;;5.60;99.90;;;;;;4994201;28;20490;-59
2022/01/06 03:16:30;;;;;;;8.93;3.27;;;5.70;99.90;;;;;;4994799;28;20816;-60
2022/01/06 03:18:56;;;;;;;5.83;3.80;;;5.70;99.90;;;;;;4994482;28;20172;-60
2022/01/06 03:21:22;;;;;;;4.40;3.30;;;5.50;99.90;;;;;;4993782;28;20169;-61
2022/01/06 03:23:47;;;;;;;6.57;3.30;;;5.40;99.90;;;;;;4993981;28;20227;-60
2022/01/06 03:26:13;;;;;;;5.83;3.53;;;5.50;99.90;;;;;;4993469;28;20196;-61
2022/01/06 03:28:38;;;;;;;7.93;3.23;;;5.60;99.90;;;;;;4994452;28;20204;-61
2022/01/06 03:31:04;;;;;;;5.20;3.50;;;5.70;99.90;;;;;;4993323;28;20168;-60
2022/01/06 03:33:29;;;;;;;5.60;3.53;;;5.80;99.90;;;;;;4993698;28;20196;-60
2022/01/06 03:35:55;;;;;;;7.00;3.13;;;5.70;99.90;;;;;;4993534;28;20693;-59
2022/01/06 03:38:21;;;;;;;6.00;3.57;;;5.60;99.90;;;;;;4976753;28;20172;-55
2022/01/06 03:40:46;;;;;;;3.90;3.07;;;5.50;99.90;;;;;;4993491;28;20168;-58
2022/01/06 03:43:12;;;;;;;5.93;3.90;;;5.40;99.90;;;;;;4993719;28;20208;-60
2022/01/06 03:45:37;;;;;;;7.00;3.80;;;5.10;99.90;;;;;;4993896;28;20203;-60
2022/01/06 03:48:03;;;;;;;4.00;3.57;;;5.20;99.90;;;;;;4993680;28;20177;-61
2022/01/06 03:50:30;;;;;;;4.77;3.67;;;5.20;99.90;;;;;;4993689;28;20183;-57
2022/01/06 03:52:56;;;;;;;7.43;3.83;;;5.30;99.90;;;;;;4993571;28;20443;-60
2022/01/06 03:55:21;;;;;;;2.90;2.63;;;5.50;99.90;;;;;;4993061;28;20455;-61
2022/01/06 03:57:48;;;;;;;6.37;4.03;;;5.70;99.90;;;;;;4994093;28;20502;-61
2022/01/06 04:00:19;;;;;;;4.00;2.77;;;5.70;99.90;;;;;;4993561;28;20677;-58
2022/01/06 04:02:46;;;;;;;4.23;3.17;;;5.70;99.90;;;;;;4994079;28;20384;-61
2022/01/06 04:05:12;;;;;;;3.70;3.27;;;5.80;99.90;;;;;;4993246;28;20542;-61
2022/01/06 04:07:39;;;;;;;4.67;2.97;;;5.80;99.90;;;;;;4994724;28;20407;-60
2022/01/06 04:10:06;;;;;;;7.77;3.53;;;5.50;99.90;;;;;;4997400;28;20416;-61
2022/01/06 04:12:34;;;;;;;5.53;2.83;;;5.50;99.90;;;;;;4997286;28;20452;-59
2022/01/06 04:15:01;;;;;;;4.67;3.30;;;5.40;99.90;;;;;;4997594;28;20542;-61
2022/01/06 04:17:26;;;;;;;6.03;2.87;;;5.50;99.90;;;;;;4997474;28;20779;-59
2022/01/06 04:19:52;;;;;;;3.63;3.30;;;5.60;99.90;;;;;;4997478;28;20407;-61
2022/01/06 04:22:18;;;;;;;6.17;2.90;;;5.70;99.90;;;;;;4997037;28;20183;-61
2022/01/06 04:24:45;;;;;;;5.10;2.73;;;5.60;99.90;;;;;;4996745;28;20270;-60
2022/01/06 04:27:10;;;;;;;6.63;3.43;;;5.70;99.90;;;;;;4997036;28;20187;-61
2022/01/06 04:29:36;;;;;;;6.47;4.17;;;5.80;99.90;;;;;;4997029;28;20408;-61
2022/01/06 04:32:02;;;;;;;6.40;3.07;;;5.80;99.90;;;;;;4996693;28;20708;-62
2022/01/06 04:34:28;;;;;;;4.77;2.87;;;5.90;99.90;;;;;;4995089;28;20207;-61
2022/01/06 04:36:56;;;;;;;4.50;3.07;;;6.00;99.90;;;;;;4996713;28;20864;-60
2022/01/06 04:39:22;;;;;;;9.33;3.67;;;6.00;99.90;;;;;;4996785;28;20194;-61
2022/01/06 04:41:48;;;;;;;5.07;3.40;;;6.00;99.90;;;;;;4996559;28;20462;-59
2022/01/06 04:44:13;;;;;;;4.00;3.40;;;6.00;99.90;;;;;;4996628;28;20183;-59
2022/01/06 04:46:39;;;;;;;4.10;3.03;;;6.10;99.90;;;;;;4996766;28;20180;-58
2022/01/06 04:49:04;;;;;;;8.63;3.57;;;5.90;99.90;;;;;;4996748;28;20188;-59
2022/01/06 04:51:31;;;;;;;3.50;2.93;;;5.80;99.90;;;;;;4996370;28;20169;-60
2022/01/06 04:53:57;;;;;;;3.50;3.20;;;5.80;99.90;;;;;;4996782;28;20208;-60
2022/01/06 04:56:23;;;;;;;4.77;2.77;;;5.60;99.90;;;;;;4996032;28;20463;-60
2022/01/06 04:58:49;;;;;;;4.00;3.10;;;5.50;99.90;;;;;;4996468;28;20410;-58
2022/01/06 05:01:15;;;;;;;3.40;3.10;;;5.40;99.90;;;;;;4978987;28;20173;-59
2022/01/06 05:03:40;;;;;;;3.60;2.87;;;5.50;99.90;;;;;;4996446;28;20985;-59
2022/01/06 05:06:06;;;;;;;6.13;4.13;;;5.70;99.90;;;;;;4996130;28;20450;-53
2022/01/06 05:08:31;;;;;;;8.43;4.77;;;5.80;99.90;;;;;;4997371;28;20219;-60
2022/01/06 05:10:57;;;;;;;6.70;5.47;;;5.60;99.90;;;;;;4996292;28;20255;-60
2022/01/06 05:13:23;;;;;;;5.17;3.80;;;5.50;99.90;;;;;;4996162;28;20756;-60
2022/01/06 05:15:48;;;;;;;6.10;4.90;;;5.50;99.90;;;;;;4996156;28;20184;-60
2022/01/06 05:18:14;;;;;;;9.43;4.43;;;5.60;99.90;;;;;;4995908;28;20187;-60
2022/01/06 05:20:42;;;;;;;9.87;7.87;;;5.50;99.90;;;;;;4995917;28;20228;-60
2022/01/06 05:23:09;;;;;;;7.83;6.17;;;5.40;99.90;;;;;;4996276;28;20189;-60
2022/01/06 05:25:35;;;;;;;8.27;5.63;;;5.50;99.90;;;;;;4995293;28;20479;-60
2022/01/06 05:28:01;;;;;;;9.47;5.00;;;5.40;99.90;;;;;;4996273;28;20795;-60
2022/01/06 05:30:26;;;;;;;5.00;4.17;;;5.50;99.90;;;;;;4996033;28;20173;-60
2022/01/06 05:32:52;;;;;;;4.70;4.00;;;5.50;99.90;;;;;;4996222;28;20330;-58
2022/01/06 05:35:18;;;;;;;4.53;3.77;;;5.30;99.90;;;;;;4996453;28;20189;-58
2022/01/06 05:37:44;;;;;;;9.00;3.77;;;5.30;99.90;;;;;;4996057;28;20180;-58
2022/01/06 05:40:11;;;;;;;4.60;3.70;;;5.40;99.90;;;;;;4995999;28;20408;-59
2022/01/06 05:42:36;;;;;;;4.97;4.10;;;5.50;99.90;;;;;;4995913;28;20200;-58
2022/01/06 05:45:03;;;;;;;4.93;3.23;;;5.40;99.90;;;;;;4995626;28;20510;-60
2022/01/06 05:47:29;;;;;;;5.00;2.73;;;5.50;99.90;;;;;;4995606;28;20208;-60
2022/01/06 05:49:54;;;;;;;5.70;3.40;;;5.40;99.90;;;;;;4995531;28;20572;-58
2022/01/06 05:52:20;;;;;;;5.10;3.40;;;5.60;99.90;;;;;;4995295;28;20208;-58
2022/01/06 05:54:46;;;;;;;3.60;3.17;;;5.80;99.90;;;;;;4995185;28;20215;-60
2022/01/06 05:57:13;;;;;;;6.43;3.53;;;5.70;99.90;;;;;;4996004;28;20169;-60
2022/01/06 05:59:38;;;;;;;6.00;3.20;;;5.70;99.90;;;;;;4995574;28;20284;-59
2022/01/06 06:02:05;;;;;;;7.63;4.30;;;5.60;99.90;;;;;;4995297;28;20784;-59
2022/01/06 06:04:31;;;;;;;4.00;3.50;;;5.50;99.90;;;;;;4995457;28;20228;-60
2022/01/06 06:06:56;;;;;;;6.73;3.53;;;5.60;99.90;;;;;;4995079;28;20432;-60
2022/01/06 06:09:22;;;;;;;5.93;3.50;;;5.70;99.90;;;;;;4995376;28;20422;-57
2022/01/06 06:11:48;;;;;;;6.27;3.63;;;5.60;99.90;;;;;;4994901;28;20196;-59
2022/01/06 06:14:13;;;;;;;4.93;3.50;;;5.60;99.90;;;;;;4995580;28;20633;-60
2022/01/06 06:16:39;;;;;;;4.60;3.37;;;5.60;99.90;;;;;;4995081;28;20201;-60
2022/01/06 06:19:05;;;;;;;9.03;3.80;;;5.70;99.90;;;;;;4995260;28;20180;-60
2022/01/06 06:21:30;;;;;;;4.20;3.20;;;5.60;99.90;;;;;;4994834;28;20227;-59
2022/01/06 06:23:56;;;;;;;3.93;3.10;;;5.50;99.90;;;;;;4995213;28;20622;-58
2022/01/06 06:26:21;;;;;;;5.07;3.60;;;5.60;99.90;;;;;;4994576;28;20201;-58
2022/01/06 06:28:47;;;;;;;5.80;3.83;;;5.70;99.90;;;;;;4994921;28;20259;-60
2022/01/06 06:31:13;;;;;;;5.77;3.10;;;5.60;99.90;;;;;;4994202;28;20184;-60
2022/01/06 06:33:38;;;;;;;4.13;3.37;;;5.60;99.90;;;;;;4994693;28;20283;-60
2022/01/06 06:36:04;;;;;;;6.90;4.30;;;5.50;99.90;;;;;;4994366;28;20189;-60
2022/01/06 06:38:30;;;;;;;5.03;4.47;;;5.40;99.90;;;;;;4994669;28;20666;-59
2022/01/06 06:40:55;;;;;;;4.87;3.60;;;5.50;99.90;;;;;;4976929;28;20619;-58
2022/01/06 06:43:21;;;;;;;3.97;3.30;;;5.60;99.90;;;;;;4995057;28;20640;-60
2022/01/06 06:45:47;;;;;;;3.77;3.37;;;5.60;99.90;;;;;;4994464;28;20199;-60
2022/01/06 06:48:13;;;;;;;4.30;3.10;;;5.30;99.90;;;;;;4994553;28;20415;-60
2022/01/06 06:50:38;;;;;;;7.27;3.90;;;5.30;99.90;;;;;;4994145;28;20204;-59
2022/01/06 06:53:04;;;;;;;6.70;4.10;;;5.30;99.90;;;;;;4994540;28;20487;-60
2022/01/06 06:55:31;;;;;;;6.13;3.57;;;5.40;99.90;;;;;;4976601;28;20307;-60
2022/01/06 06:57:57;;;;;;;5.63;2.97;;;5.50;99.90;;;;;;4994256;28;20177;-59
2022/01/06 07:00:22;;;;;;;4.93;3.90;;;5.40;99.90;;;;;;4994294;28;20499;-60
2022/01/06 07:02:48;;;;;;;9.00;4.60;;;5.20;99.90;;;;;;4994725;28;20498;-56
2022/01/06 07:05:15;;;;;;;4.77;3.70;;;5.00;99.90;;;;;;4994632;28;20192;-58
2022/01/06 07:07:41;;;;;;;4.43;3.20;;;5.10;99.90;;;;;;4994463;28;20183;-60
2022/01/06 07:10:08;;;;;;;5.20;3.60;;;5.10;99.90;;;;;;4994393;28;20400;-60
2022/01/06 07:12:40;;;;;;;3.53;3.17;;;5.10;99.90;;;;;;4994148;28;20547;-59
2022/01/06 07:15:08;;;;;;;5.67;3.20;;;5.10;99.90;;;;;;4994366;28;20432;-57
2022/01/06 07:17:33;;;;;;;6.17;3.67;;;5.30;99.90;;;;;;4994284;28;20845;-60
2022/01/06 07:19:59;;;;;;;6.67;4.13;;;5.20;99.90;;;;;;4993958;28;20438;-59
2022/01/06 07:22:24;;;;;;;5.53;3.37;;;5.20;99.90;;;;;;4993434;28;20176;-59
2022/01/06 07:24:50;;;;;;;5.40;3.47;;;5.30;99.90;;;;;;4993463;28;20275;-60
2022/01/06 07:27:16;;;;;;;7.27;3.87;;;5.40;99.90;;;;;;4992196;28;20188;-60
2022/01/06 07:29:41;;;;;;;8.90;4.00;;;5.40;99.90;;;;;;4993887;28;20173;-60
2022/01/06 07:32:07;;;;;;;6.73;3.57;;;5.40;99.90;;;;;;4993734;28;20200;-60
2022/01/06 07:34:33;;;;;;;10.43;3.50;;;5.40;99.90;;;;;;4993653;28;20691;-57
2022/01/06 07:36:59;;;;;;;4.67;3.37;;;5.50;99.90;;;;;;4993559;28;20169;-59
2022/01/06 07:39:25;;;;;;;5.50;3.70;;;5.50;99.90;;;;;;4993719;28;20179;-60
2022/01/06 07:41:51;;;;;;;5.53;3.20;;;5.50;99.90;;;;;;4992545;28;20419;-60
2022/01/06 07:44:17;;;;;;;4.43;3.17;;;5.40;99.90;;;;;;4993937;28;20411;-60
2022/01/06 07:46:45;;;;;;;7.93;3.37;;;5.50;99.90;;;;;;4993834;28;20187;-56
2022/01/06 07:49:10;;;;;;;5.70;3.70;;;5.40;99.90;;;;;;4993910;28;20169;-55
2022/01/06 07:51:36;;;;;;;5.20;3.97;;;5.50;99.90;;;;;;4993422;28;20419;-58
2022/01/06 07:54:02;;;;;;;6.23;3.10;;;5.60;99.90;;;;;;4993768;28;20736;-59
2022/01/06 07:56:28;;;;;;;4.23;3.43;;;5.50;99.90;;;;;;4992996;28;20227;-58
2022/01/06 07:58:53;;;;;;;5.77;4.20;;;5.40;99.90;;;;;;4993854;28;20411;-59
2022/01/06 08:01:19;;;;;;;7.07;3.37;;;5.30;99.90;;;;;;4993983;28;20177;-60
2022/01/06 08:03:45;;;;;;;5.00;4.30;;;5.20;99.90;;;;;;4993768;28;20261;-59
2022/01/06 08:06:12;;;;;;;5.73;3.50;;;5.10;99.90;;;;;;4993472;28;20287;-59
2022/01/06 08:08:38;;;;;;;7.10;3.63;;;4.90;99.90;;;;;;4993541;28;20222;-53
2022/01/06 08:11:04;;;;;;;8.50;4.33;;;5.00;99.90;;;;;;4993410;28;20416;-56
2022/01/06 08:13:30;;;;;;;5.00;3.40;;;4.90;99.90;;;;;;4993816;28;20204;-60
2022/01/06 08:15:55;;;;;;;11.57;3.50;;;5.10;99.90;;;;;;4993393;28;20204;-60
2022/01/06 08:18:21;;;;;;;8.97;3.63;;;5.20;99.90;;;;;;4993719;28;20696;-58
2022/01/06 08:20:46;;;;;;;5.13;3.40;;;5.30;99.90;;;;;;4993101;28;20547;-59
2022/01/06 08:23:12;;;;;;;6.23;3.90;;;5.10;99.90;;;;;;4993409;28;20173;-60
2022/01/06 08:25:38;;;;;;;5.63;3.57;;;5.20;99.90;;;;;;4993179;28;20596;-59
2022/01/06 08:28:04;;;;;;;4.80;3.60;;;5.30;99.90;;;;;;4993262;28;20177;-58
2022/01/06 08:30:30;;;;;;;6.53;4.50;;;5.30;99.90;;;;;;4993327;28;20172;-60
2022/01/06 08:32:56;;;;;;;8.57;5.33;;;5.20;99.90;;;;;;4993350;28;20450;-57
2022/01/06 08:35:22;;;;;;;7.20;5.40;;;5.00;99.90;;;;;;4993503;28;20936;-59
2022/01/06 08:37:48;;;;;;;7.37;5.57;;;5.10;99.90;;;;;;4993040;28;20252;-59
2022/01/06 08:40:14;;;;;;;11.43;7.00;;;5.20;99.90;;;;;;4993165;28;20935;-60
2022/01/06 08:42:40;;;;;;;9.23;6.13;;;5.30;99.90;;;;;;4993436;28;20510;-60
2022/01/06 08:45:07;;;;;;;10.43;5.30;;;5.30;99.90;;;;;;4993184;28;20201;-60
2022/01/06 08:47:32;;;;;;;8.63;5.27;;;5.30;99.90;;;;;;4993452;28;20411;-60
2022/01/06 08:49:58;;;;;;;7.13;4.70;;;5.30;99.90;;;;;;4993377;28;20631;-60
2022/01/06 08:52:25;;;;;;;6.53;4.67;;;5.20;99.90;;;;;;4993067;28;20610;-60
2022/01/06 08:54:51;;;;;;;8.10;4.80;;;5.40;99.90;;;;;;5019453;23;20208;-58
2022/01/06 08:57:18;;;;;;;8.10;3.73;;;5.50;99.90;;;;;;4997377;28;20403;-62
2022/01/06 08:59:44;;;;;;;9.23;5.43;;;5.50;99.90;;;;;;4997007;28;20475;-60
2022/01/06 09:02:10;;;;;;;4.57;4.17;;;5.40;99.90;;;;;;4996986;28;20475;-63
2022/01/06 09:04:35;;;;;;;6.93;4.17;;;5.40;99.90;;;;;;4996962;28;20411;-62
2022/01/06 09:07:03;;;;;;;12.40;5.17;;;5.40;99.90;;;;;;4996583;28;20197;-61
2022/01/06 09:09:29;;;;;;;11.50;4.30;;;5.20;99.90;;;;;;4996593;28;20161;-63
2022/01/06 09:11:54;;;;;;;7.90;4.60;;;5.30;99.90;;;;;;4996093;28;20400;-60
2022/01/06 09:14:22;;;;;;;7.07;4.60;;;5.30;99.90;;;;;;4996659;28;20491;-62
2022/01/06 09:16:48;;;;;;;5.80;4.03;;;5.40;99.90;;;;;;4996411;28;20180;-62
2022/01/06 09:19:14;;;;;;;5.60;4.03;;;5.40;99.90;;;;;;4996589;28;20412;-62
2022/01/06 09:21:40;;;;;;;9.50;4.50;;;5.50;99.90;;;;;;4995851;28;20574;-61
2022/01/06 09:24:07;;;;;;;8.97;4.73;;;5.50;99.90;;;;;;4996842;28;20522;-62
2022/01/06 09:26:36;;;;;;;6.47;4.23;;;5.50;99.90;;;;;;4995803;28;20658;-61
2022/01/06 09:29:06;;;;;;;9.27;5.27;;;5.50;99.90;;;;;;4996309;28;20891;-61
2022/01/06 09:31:36;;;;;;;13.90;4.30;;;5.50;99.90;;;;;;4996249;28;20435;-62
2022/01/06 09:34:04;;;;;;;6.43;3.80;;;5.40;99.90;;;;;;4996236;28;20539;-62
2022/01/06 09:36:31;;;;;;;6.73;4.03;;;5.30;99.90;;;;;;4995720;28;20428;-61
2022/01/06 09:38:57;;;;;;;7.80;4.07;;;5.40;99.90;;;;;;4996247;28;20407;-62
2022/01/06 09:41:23;;;;;;;9.30;4.50;;;5.50;99.90;;;;;;4995820;28;20415;-62
2022/01/06 09:43:52;;;;;;;6.87;4.90;;;5.60;99.90;;;;;;4996009;28;20411;-62
2022/01/06 09:46:20;;;;;;;10.70;4.30;;;5.70;99.90;;;;;;4996025;28;20255;-62
2022/01/06 09:48:46;;;;;;;5.50;3.87;;;5.60;99.90;;;;;;4995804;28;20964;-62
2022/01/06 09:51:13;;;;;;;5.23;3.83;;;5.70;99.90;;;;;;4996049;28;20905;-62
2022/01/06 09:53:38;;;;;;;9.87;4.33;;;6.00;99.90;;;;;;4995747;28;20531;-62
2022/01/06 09:56:05;;;;;;;5.60;3.73;;;6.20;99.90;;;;;;4995318;28;20457;-62
2022/01/06 09:58:31;;;;;;;4.80;3.90;;;6.40;99.90;;;;;;4978177;28;20169;-62
2022/01/06 10:00:58;;;;;;;8.73;4.33;;;6.60;99.90;;;;;;4995831;28;20410;-62
2022/01/06 10:03:39;;;;;;;6.17;3.77;;;6.60;99.90;;;;;;4995860;28;20416;-62
2022/01/06 10:06:19;;;;;;;5.87;3.67;;;6.60;99.90;;;;;;4994375;28;20446;-62
2022/01/06 10:09:04;;;;;;;6.60;4.23;;;6.60;99.90;;;;;;4995931;28;20390;-62
2022/01/06 10:11:35;;;;;;;6.13;3.47;;;6.40;99.90;;;;;;4995011;28;20877;-62
2022/01/06 10:14:05;;;;;;;5.03;3.30;;;6.50;99.90;;;;;;4995199;28;20455;-62
2022/01/06 10:16:31;;;;;;;7.27;4.40;;;6.60;99.90;;;;;;4995527;28;20463;-63
2022/01/06 10:19:07;;;;;;;11.23;5.10;;;6.50;99.90;;;;;;4986735;28;20427;-60
2022/01/06 10:21:46;;;;;;;6.20;3.80;;;6.30;99.90;;;;;;4987356;28;20433;-61
2022/01/06 10:24:16;;;;;;;6.47;3.93;;;6.40;99.90;;;;;;4994512;28;20405;-62
2022/01/06 10:26:55;;;;;;;7.87;4.43;;;6.20;99.90;;;;;;4994733;28;20442;-62
2022/01/06 10:29:22;;;;;;;8.30;4.63;;;6.40;99.90;;;;;;4995128;28;20392;-62
2022/01/06 10:31:48;;;;;;;4.37;3.13;;;6.50;99.90;;;;;;4995052;28;20487;-62
2022/01/06 10:34:13;;;;;;;7.37;4.30;;;6.30;99.90;;;;;;4977423;28;21050;-61
2022/01/06 10:36:41;;;;;;;5.70;3.50;;;6.20;99.90;;;;;;4994397;28;20268;-60
2022/01/06 10:39:08;;;;;;;6.63;4.20;;;6.10;99.90;;;;;;4994844;28;20408;-62
2022/01/06 10:41:38;;;;;;;6.73;4.80;;;6.20;99.90;;;;;;4994410;28;20420;-62
2022/01/06 10:44:05;;;;;;;8.40;4.13;;;6.30;99.90;;;;;;4994913;28;20437;-62
2022/01/06 10:46:40;;;;;;;9.50;5.13;;;6.30;99.90;;;;;;4994628;28;20491;-62
2022/01/06 10:49:10;;;;;;;6.73;4.00;;;6.10;99.90;;;;;;4995189;28;20470;-61
2022/01/06 10:51:42;;;;;;;10.50;5.97;;;6.10;99.90;;;;;;4994541;28;20408;-62
2022/01/06 10:54:17;;;;;;;7.33;3.90;;;6.00;99.90;;;;;;4994775;28;20948;-62
2022/01/06 10:56:54;;;;;;;6.80;4.37;;;6.10;99.90;;;;;;4994233;28;20454;-62
2022/01/06 10:59:32;;;;;;;8.97;3.20;;;6.10;99.90;;;;;;4994746;28;20765;-62
2022/01/06 11:01:58;;;;;;;10.20;3.53;;;6.30;99.90;;;;;;4994401;28;20415;-62
2022/01/06 11:04:24;;;;;;;5.67;3.37;;;6.20;99.90;;;;;;4977076;28;20929;-62
2022/01/06 11:06:50;;;;;;;9.57;3.90;;;6.30;99.90;;;;;;4994357;28;20471;-62
2022/01/06 11:09:17;;;;;;;7.10;3.30;;;6.40;99.90;;;;;;4994529;28;20256;-62
2022/01/06 11:12:26;;;;;;;6.43;3.27;;;6.40;99.90;;;;;;4994117;28;20511;-61
2022/01/06 11:14:30;;;;;;;6.13;3.67;;;6.50;99.90;;;;;;4994196;28;20945;-62
2022/01/06 11:16:56;;;;;;;4.00;3.23;;;6.30;99.90;;;;;;4993877;28;20436;-62
2022/01/06 11:19:23;;;;;;;6.67;3.50;;;6.40;99.90;;;;;;4994203;28;20768;-62
2022/01/06 11:21:50;;;;;;;6.93;3.23;;;6.20;99.90;;;;;;4993386;28;20784;-61
2022/01/06 11:24:23;;;;;;;7.73;3.50;;;6.50;99.90;;;;;;4994393;28;20441;-61
2022/01/06 11:27:09;;;;;;;7.53;3.50;;;6.80;99.90;;;;;;4993740;28;20431;-63
2022/01/06 11:29:37;;;;;;;9.07;3.00;;;7.10;99.90;;;;;;4994157;28;20378;-60
2022/01/06 11:32:05;;;;;;;5.20;2.90;;;6.80;99.90;;;;;;4994087;28;20411;-62
2022/01/06 11:34:40;;;;;;;10.00;4.20;;;6.80;99.90;;;;;;4994325;28;20412;-62
2022/01/06 11:37:11;;;;;;;9.10;4.03;;;6.60;99.90;;;;;;4994148;28;20396;-62
2022/01/06 11:39:37;;;;;;;9.90;3.80;;;6.40;99.90;;;;;;4993887;28;20408;-62
2022/01/06 11:42:23;;;;;;;9.50;3.50;;;6.50;99.90;;;;;;4993609;28;20465;-62
2022/01/06 11:44:51;;;;;;;11.17;3.93;;;6.50;99.90;;;;;;4994074;28;20202;-63
2022/01/06 11:47:37;;;;;;;6.67;3.13;;;6.70;99.90;;;;;;4994011;28;20416;-63
2022/01/06 11:50:12;;;;;;;4.90;3.40;;;6.90;99.90;;;;;;4976593;28;20960;-63
2022/01/06 11:52:56;;;;;;;9.53;2.90;;;6.90;99.90;;;;;;4993732;28;20844;-62
2022/01/06 11:55:23;;;;;;;9.97;3.33;;;6.90;99.90;;;;;;4993657;28;20476;-62
2022/01/06 11:57:49;;;;;;;7.97;2.67;;;7.00;99.90;;;;;;4994257;28;20402;-61
2022/01/06 12:00:26;;;;;;;5.90;3.40;;;7.20;99.90;;;;;;4993971;28;20408;-62
2022/01/06 12:02:56;;;;;;;7.57;2.73;;;7.20;99.90;;;;;;4993997;28;20965;-62
2022/01/06 12:05:22;;;;;;;5.07;3.07;;;7.40;99.90;;;;;;4993804;28;20808;-62
2022/01/06 12:07:50;;;;;;;6.73;3.80;;;7.50;99.90;;;;;;4993991;28;20415;-62
2022/01/06 12:10:16;;;;;;;8.80;4.10;;;7.90;99.90;;;;;;4993960;28;20410;-62
2022/01/06 12:12:42;;;;;;;10.20;2.80;;;8.40;99.90;;;;;;4993531;28;20509;-62
2022/01/06 12:15:10;;;;;;;6.87;2.40;;;8.20;99.90;;;;;;4993848;28;20428;-62
2022/01/06 12:17:36;;;;;;;4.73;2.87;;;8.60;99.90;;;;;;4993748;28;20234;-62
2022/01/06 12:20:04;;;;;;;7.70;3.33;;;9.80;99.90;;;;;;4994085;28;20927;-62
2022/01/06 12:22:29;;;;;;;5.60;2.80;;;10.90;99.90;;;;;;4993634;28;20441;-62
2022/01/06 12:25:03;;;;;;;7.63;2.80;;;12.30;99.90;;;;;;4993744;28;20905;-62
2022/01/06 12:27:30;;;;;;;5.37;2.90;;;12.30;99.90;;;;;;4993464;28;20161;-62
2022/01/06 12:29:56;;;;;;;4.93;3.00;;;11.30;99.90;;;;;;4996825;28;20407;-61
2022/01/06 12:32:22;;;;;;;7.73;2.97;;;10.40;99.90;;;;;;4997321;28;20483;-61
2022/01/06 12:34:53;;;;;;;10.30;3.63;;;9.60;99.90;;;;;;4997567;28;20169;-60
2022/01/06 12:37:29;;;;;;;6.60;2.83;;;8.90;99.90;;;;;;4997342;28;20966;-61
2022/01/06 12:39:55;;;;;;;9.50;3.73;;;8.50;99.90;;;;;;4997414;28;20399;-63
2022/01/06 12:42:22;;;;;;;7.60;3.07;;;8.30;99.90;;;;;;4996977;28;20473;-63
2022/01/06 12:44:49;;;;;;;8.90;4.00;;;8.10;99.90;;;;;;4997041;28;20501;-61
2022/01/06 12:47:15;;;;;;;8.83;3.40;;;7.90;99.90;;;;;;4997200;28;20457;-62
2022/01/06 12:49:41;;;;;;;5.63;3.37;;;7.50;99.90;;;;;;4997520;28;20417;-62
2022/01/06 12:52:07;;;;;;;7.33;3.30;;;7.30;99.90;;;;;;4996871;28;20409;-62
2022/01/06 12:54:35;;;;;;;7.23;3.43;;;7.20;99.90;;;;;;4997171;28;20174;-62
2022/01/06 12:57:02;;;;;;;7.37;2.87;;;6.90;99.90;;;;;;4996402;28;20464;-62
2022/01/06 12:59:34;;;;;;;13.10;3.30;;;6.90;99.90;;;;;;4996858;28;20402;-63
2022/01/06 13:02:09;;;;;;;9.27;3.70;;;7.00;99.90;;;;;;4997158;28;20894;-63
2022/01/06 13:04:47;;;;;;;5.13;3.07;;;7.10;99.90;;;;;;4997491;28;20412;-62
2022/01/06 13:07:15;;;;;;;8.13;3.67;;;7.00;99.90;;;;;;4997117;28;20389;-62